sensor_id;sensor_type;location;lat;lon;timestamp;temperature;humidity
74294;DHT22;64044;59.904;10.738;2023-05-28T00:02:12;14.50;67.00
74294;DHT22;64044;59.904;10.738;2023-05-28T00:04:37;14.50;67.10
74294;DHT22;64044;59.904;10.738;2023-05-28T00:07:03;14.50;67.10
74294;DHT22;64044;59.904;10.738;2023-05-28T00:09:29;14.50;67.20
74294;DHT22;64044;59.904;10.738;2023-05-28T00:11:55;14.40;67.20
74294;DHT22;64044;59.904;10.738;2023-05-28T00:14:22;14.50;67.50
74294;DHT22;64044;59.904;10.738;2023-05-28T00:16:47;14.40;67.60
74294;DHT22;64044;59.904;10.738;2023-05-28T00:19:16;14.40;67.60
74294;DHT22;64044;59.904;10.738;2023-05-28T00:21:42;14.40;67.70
74294;DHT22;64044;59.904;10.738;2023-05-28T00:24:08;14.30;67.70
74294;DHT22;64044;59.904;10.738;2023-05-28T00:26:33;14.30;67.80
74294;DHT22;64044;59.904;10.738;2023-05-28T00:28:59;14.30;67.90
74294;DHT22;64044;59.904;10.738;2023-05-28T00:31:25;14.30;67.90
74294;DHT22;64044;59.904;10.738;2023-05-28T00:33:51;14.30;67.90
74294;DHT22;64044;59.904;10.738;2023-05-28T00:36:17;14.30;67.80
74294;DHT22;64044;59.904;10.738;2023-05-28T00:38:42;14.20;67.60
74294;DHT22;64044;59.904;10.738;2023-05-28T00:41:08;14.20;67.70
74294;DHT22;64044;59.904;10.738;2023-05-28T00:43:34;14.20;67.80
74294;DHT22;64044;59.904;10.738;2023-05-28T00:46:01;14.10;67.70
74294;DHT22;64044;59.904;10.738;2023-05-28T00:48:29;14.10;68.10
74294;DHT22;64044;59.904;10.738;2023-05-28T00:50:57;14.10;68.30
74294;DHT22;64044;59.904;10.738;2023-05-28T00:53:24;14.10;68.00
74294;DHT22;64044;59.904;10.738;2023-05-28T00:55:50;14.10;68.10
74294;DHT22;64044;59.904;10.738;2023-05-28T00:58:17;14.00;68.20
74294;DHT22;64044;59.904;10.738;2023-05-28T01:00:45;14.00;68.40
74294;DHT22;64044;59.904;10.738;2023-05-28T01:03:14;14.00;68.50
74294;DHT22;64044;59.904;10.738;2023-05-28T01:05:40;14.00;68.90
74294;DHT22;64044;59.904;10.738;2023-05-28T01:08:06;14.00;68.90
74294;DHT22;64044;59.904;10.738;2023-05-28T01:10:33;14.00;69.00
74294;DHT22;64044;59.904;10.738;2023-05-28T01:13:02;14.00;68.90
74294;DHT22;64044;59.904;10.738;2023-05-28T01:15:28;14.00;69.00
74294;DHT22;64044;59.904;10.738;2023-05-28T01:18:00;13.90;68.90
74294;DHT22;64044;59.904;10.738;2023-05-28T01:20:27;14.00;69.00
74294;DHT22;64044;59.904;10.738;2023-05-28T01:22:55;13.90;68.80
74294;DHT22;64044;59.904;10.738;2023-05-28T01:25:24;13.90;68.80
74294;DHT22;64044;59.904;10.738;2023-05-28T01:27:51;13.90;68.50
74294;DHT22;64044;59.904;10.738;2023-05-28T01:30:17;13.90;68.50
74294;DHT22;64044;59.904;10.738;2023-05-28T01:32:42;13.90;68.50
74294;DHT22;64044;59.904;10.738;2023-05-28T01:35:09;13.80;68.70
74294;DHT22;64044;59.904;10.738;2023-05-28T01:37:47;13.80;69.10
74294;DHT22;64044;59.904;10.738;2023-05-28T01:40:14;13.80;69.40
74294;DHT22;64044;59.904;10.738;2023-05-28T01:42:42;13.70;69.40
74294;DHT22;64044;59.904;10.738;2023-05-28T01:45:10;13.70;69.60
74294;DHT22;64044;59.904;10.738;2023-05-28T01:47:38;13.70;69.50
74294;DHT22;64044;59.904;10.738;2023-05-28T01:50:04;13.70;69.40
74294;DHT22;64044;59.904;10.738;2023-05-28T01:52:30;13.60;69.30
74294;DHT22;64044;59.904;10.738;2023-05-28T01:54:56;13.60;69.20
74294;DHT22;64044;59.904;10.738;2023-05-28T01:57:22;13.60;69.10
74294;DHT22;64044;59.904;10.738;2023-05-28T01:59:48;13.60;69.10
74294;DHT22;64044;59.904;10.738;2023-05-28T02:02:13;13.60;69.00
74294;DHT22;64044;59.904;10.738;2023-05-28T02:04:39;13.50;68.90
74294;DHT22;64044;59.904;10.738;2023-05-28T02:07:05;13.50;68.90
74294;DHT22;64044;59.904;10.738;2023-05-28T02:09:31;13.50;68.80
74294;DHT22;64044;59.904;10.738;2023-05-28T02:11:56;13.50;68.90
74294;DHT22;64044;59.904;10.738;2023-05-28T02:14:24;13.50;69.00
74294;DHT22;64044;59.904;10.738;2023-05-28T02:16:50;13.50;69.00
74294;DHT22;64044;59.904;10.738;2023-05-28T02:19:18;13.40;69.00
74294;DHT22;64044;59.904;10.738;2023-05-28T02:21:44;13.40;69.20
74294;DHT22;64044;59.904;10.738;2023-05-28T02:24:09;13.50;69.20
74294;DHT22;64044;59.904;10.738;2023-05-28T02:26:35;13.50;69.10
74294;DHT22;64044;59.904;10.738;2023-05-28T02:29:01;13.50;69.10
74294;DHT22;64044;59.904;10.738;2023-05-28T02:31:27;13.50;69.00
74294;DHT22;64044;59.904;10.738;2023-05-28T02:33:52;13.60;68.90
74294;DHT22;64044;59.904;10.738;2023-05-28T02:36:18;13.60;68.40
74294;DHT22;64044;59.904;10.738;2023-05-28T02:38:44;13.60;68.40
74294;DHT22;64044;59.904;10.738;2023-05-28T02:41:10;13.60;68.30
74294;DHT22;64044;59.904;10.738;2023-05-28T02:43:36;13.70;68.00
74294;DHT22;64044;59.904;10.738;2023-05-28T02:46:02;13.70;67.70
74294;DHT22;64044;59.904;10.738;2023-05-28T02:48:27;13.70;67.50
74294;DHT22;64044;59.904;10.738;2023-05-28T02:50:53;13.60;67.20
74294;DHT22;64044;59.904;10.738;2023-05-28T02:53:22;13.70;67.50
74294;DHT22;64044;59.904;10.738;2023-05-28T02:55:48;13.70;67.80
74294;DHT22;64044;59.904;10.738;2023-05-28T02:58:15;13.70;68.30
74294;DHT22;64044;59.904;10.738;2023-05-28T03:00:41;13.70;68.00
74294;DHT22;64044;59.904;10.738;2023-05-28T03:03:07;13.70;67.90
74294;DHT22;64044;59.904;10.738;2023-05-28T03:05:34;13.70;67.40
74294;DHT22;64044;59.904;10.738;2023-05-28T03:08:00;13.60;66.90
74294;DHT22;64044;59.904;10.738;2023-05-28T03:10:26;13.60;66.60
74294;DHT22;64044;59.904;10.738;2023-05-28T03:12:52;13.50;66.30
74294;DHT22;64044;59.904;10.738;2023-05-28T03:15:18;13.50;66.10
74294;DHT22;64044;59.904;10.738;2023-05-28T03:17:43;13.40;65.90
74294;DHT22;64044;59.904;10.738;2023-05-28T03:20:10;13.40;65.90
74294;DHT22;64044;59.904;10.738;2023-05-28T03:22:37;13.30;66.00
74294;DHT22;64044;59.904;10.738;2023-05-28T03:25:04;13.30;66.70
74294;DHT22;64044;59.904;10.738;2023-05-28T03:27:33;13.20;66.00
74294;DHT22;64044;59.904;10.738;2023-05-28T03:29:59;13.20;65.80
74294;DHT22;64044;59.904;10.738;2023-05-28T03:32:25;13.10;65.40
74294;DHT22;64044;59.904;10.738;2023-05-28T03:34:51;13.10;65.20
74294;DHT22;64044;59.904;10.738;2023-05-28T03:37:16;13.10;64.70
74294;DHT22;64044;59.904;10.738;2023-05-28T03:39:43;13.00;64.10
74294;DHT22;64044;59.904;10.738;2023-05-28T03:42:09;13.00;64.00
74294;DHT22;64044;59.904;10.738;2023-05-28T03:44:34;13.00;63.70
74294;DHT22;64044;59.904;10.738;2023-05-28T03:47:01;13.00;62.90
74294;DHT22;64044;59.904;10.738;2023-05-28T03:49:26;13.00;61.50
74294;DHT22;64044;59.904;10.738;2023-05-28T03:51:52;13.10;60.10
74294;DHT22;64044;59.904;10.738;2023-05-28T03:54:18;13.10;59.30
74294;DHT22;64044;59.904;10.738;2023-05-28T03:56:44;13.20;58.80
74294;DHT22;64044;59.904;10.738;2023-05-28T03:59:09;13.20;57.20
74294;DHT22;64044;59.904;10.738;2023-05-28T04:01:35;13.30;57.20
74294;DHT22;64044;59.904;10.738;2023-05-28T04:04:02;13.40;57.50
74294;DHT22;64044;59.904;10.738;2023-05-28T04:06:28;13.40;57.00
74294;DHT22;64044;59.904;10.738;2023-05-28T04:08:55;13.40;56.60
74294;DHT22;64044;59.904;10.738;2023-05-28T04:11:21;13.40;56.40
74294;DHT22;64044;59.904;10.738;2023-05-28T04:13:50;13.40;56.40
74294;DHT22;64044;59.904;10.738;2023-05-28T04:16:16;13.50;56.10
74294;DHT22;64044;59.904;10.738;2023-05-28T04:18:42;13.50;55.80
74294;DHT22;64044;59.904;10.738;2023-05-28T04:21:08;13.50;54.80
74294;DHT22;64044;59.904;10.738;2023-05-28T04:23:33;13.50;54.80
74294;DHT22;64044;59.904;10.738;2023-05-28T04:25:59;13.60;54.40
74294;DHT22;64044;59.904;10.738;2023-05-28T04:28:25;13.60;53.30
74294;DHT22;64044;59.904;10.738;2023-05-28T04:30:53;13.60;53.10
74294;DHT22;64044;59.904;10.738;2023-05-28T04:33:20;13.70;53.10
74294;DHT22;64044;59.904;10.738;2023-05-28T04:35:47;13.60;51.70
74294;DHT22;64044;59.904;10.738;2023-05-28T04:38:12;13.70;51.80
74294;DHT22;64044;59.904;10.738;2023-05-28T04:40:38;13.70;52.40
74294;DHT22;64044;59.904;10.738;2023-05-28T04:43:05;13.80;52.30
74294;DHT22;64044;59.904;10.738;2023-05-28T04:45:32;13.80;52.30
74294;DHT22;64044;59.904;10.738;2023-05-28T04:47:58;13.80;52.90
74294;DHT22;64044;59.904;10.738;2023-05-28T04:50:24;13.80;52.60
74294;DHT22;64044;59.904;10.738;2023-05-28T04:52:50;13.90;53.40
74294;DHT22;64044;59.904;10.738;2023-05-28T04:55:15;13.90;53.20
74294;DHT22;64044;59.904;10.738;2023-05-28T04:57:42;13.90;52.60
74294;DHT22;64044;59.904;10.738;2023-05-28T05:00:08;13.90;52.60
74294;DHT22;64044;59.904;10.738;2023-05-28T05:02:38;13.90;52.80
74294;DHT22;64044;59.904;10.738;2023-05-28T05:05:05;13.90;52.40
74294;DHT22;64044;59.904;10.738;2023-05-28T05:07:30;13.90;52.80
74294;DHT22;64044;59.904;10.738;2023-05-28T05:09:56;13.90;52.70
74294;DHT22;64044;59.904;10.738;2023-05-28T05:12:22;13.90;52.60
74294;DHT22;64044;59.904;10.738;2023-05-28T05:14:47;13.90;52.40
74294;DHT22;64044;59.904;10.738;2023-05-28T05:17:13;13.90;52.80
74294;DHT22;64044;59.904;10.738;2023-05-28T05:19:39;13.90;52.70
74294;DHT22;64044;59.904;10.738;2023-05-28T05:22:05;14.00;52.10
74294;DHT22;64044;59.904;10.738;2023-05-28T05:24:30;14.00;49.80
74294;DHT22;64044;59.904;10.738;2023-05-28T05:26:56;14.00;50.70
74294;DHT22;64044;59.904;10.738;2023-05-28T05:29:22;14.00;49.10
74294;DHT22;64044;59.904;10.738;2023-05-28T05:31:49;14.00;49.00
74294;DHT22;64044;59.904;10.738;2023-05-28T05:34:14;14.10;49.30
74294;DHT22;64044;59.904;10.738;2023-05-28T05:36:41;14.10;49.80
74294;DHT22;64044;59.904;10.738;2023-05-28T05:39:06;14.10;50.30
74294;DHT22;64044;59.904;10.738;2023-05-28T05:41:32;14.20;50.20
74294;DHT22;64044;59.904;10.738;2023-05-28T05:43:58;14.10;49.90
74294;DHT22;64044;59.904;10.738;2023-05-28T05:46:23;14.10;50.00
74294;DHT22;64044;59.904;10.738;2023-05-28T05:48:49;14.20;49.80
74294;DHT22;64044;59.904;10.738;2023-05-28T05:51:15;14.20;49.30
74294;DHT22;64044;59.904;10.738;2023-05-28T05:53:44;14.20;48.60
74294;DHT22;64044;59.904;10.738;2023-05-28T05:56:10;14.20;48.60
74294;DHT22;64044;59.904;10.738;2023-05-28T05:58:36;14.20;48.00
74294;DHT22;64044;59.904;10.738;2023-05-28T06:01:03;14.30;47.80
74294;DHT22;64044;59.904;10.738;2023-05-28T06:03:29;14.30;48.40
74294;DHT22;64044;59.904;10.738;2023-05-28T06:05:54;14.30;48.20
74294;DHT22;64044;59.904;10.738;2023-05-28T06:08:20;14.40;46.80
74294;DHT22;64044;59.904;10.738;2023-05-28T06:10:47;14.40;46.70
74294;DHT22;64044;59.904;10.738;2023-05-28T06:13:15;14.50;47.10
74294;DHT22;64044;59.904;10.738;2023-05-28T06:15:41;14.50;47.40
74294;DHT22;64044;59.904;10.738;2023-05-28T06:18:07;14.50;47.90
74294;DHT22;64044;59.904;10.738;2023-05-28T06:20:33;14.50;48.80
74294;DHT22;64044;59.904;10.738;2023-05-28T06:22:58;14.60;48.40
74294;DHT22;64044;59.904;10.738;2023-05-28T06:25:24;14.60;48.40
74294;DHT22;64044;59.904;10.738;2023-05-28T06:27:50;14.60;48.80
74294;DHT22;64044;59.904;10.738;2023-05-28T06:30:16;14.60;48.10
74294;DHT22;64044;59.904;10.738;2023-05-28T06:32:43;14.60;48.00
74294;DHT22;64044;59.904;10.738;2023-05-28T06:35:08;14.70;47.10
74294;DHT22;64044;59.904;10.738;2023-05-28T06:37:34;14.70;47.60
74294;DHT22;64044;59.904;10.738;2023-05-28T06:40:00;14.80;46.70
74294;DHT22;64044;59.904;10.738;2023-05-28T06:42:26;14.80;47.10
74294;DHT22;64044;59.904;10.738;2023-05-28T06:44:51;14.80;47.10
74294;DHT22;64044;59.904;10.738;2023-05-28T06:47:17;14.90;45.90
74294;DHT22;64044;59.904;10.738;2023-05-28T06:49:43;14.90;45.20
74294;DHT22;64044;59.904;10.738;2023-05-28T06:52:08;15.00;43.90
74294;DHT22;64044;59.904;10.738;2023-05-28T06:54:34;15.10;44.10
74294;DHT22;64044;59.904;10.738;2023-05-28T06:57:00;15.10;44.70
74294;DHT22;64044;59.904;10.738;2023-05-28T06:59:25;15.20;45.10
74294;DHT22;64044;59.904;10.738;2023-05-28T07:01:51;15.30;43.70
74294;DHT22;64044;59.904;10.738;2023-05-28T07:04:17;15.30;43.70
74294;DHT22;64044;59.904;10.738;2023-05-28T07:06:43;15.40;44.40
74294;DHT22;64044;59.904;10.738;2023-05-28T07:09:09;15.40;44.90
74294;DHT22;64044;59.904;10.738;2023-05-28T07:11:35;15.50;44.80
74294;DHT22;64044;59.904;10.738;2023-05-28T07:14:01;15.60;44.50
74294;DHT22;64044;59.904;10.738;2023-05-28T07:16:27;15.60;43.50
74294;DHT22;64044;59.904;10.738;2023-05-28T07:18:52;15.70;42.70
74294;DHT22;64044;59.904;10.738;2023-05-28T07:21:18;15.70;43.90
74294;DHT22;64044;59.904;10.738;2023-05-28T07:23:44;15.80;42.90
74294;DHT22;64044;59.904;10.738;2023-05-28T07:26:09;15.80;41.40
74294;DHT22;64044;59.904;10.738;2023-05-28T07:28:35;15.90;40.80
74294;DHT22;64044;59.904;10.738;2023-05-28T07:31:01;15.90;41.00
74294;DHT22;64044;59.904;10.738;2023-05-28T07:33:27;16.00;40.80
74294;DHT22;64044;59.904;10.738;2023-05-28T07:35:52;16.00;40.60
74294;DHT22;64044;59.904;10.738;2023-05-28T07:38:18;16.10;40.80
74294;DHT22;64044;59.904;10.738;2023-05-28T07:40:44;16.20;39.80
74294;DHT22;64044;59.904;10.738;2023-05-28T07:43:10;16.20;38.10
74294;DHT22;64044;59.904;10.738;2023-05-28T07:45:36;16.20;38.20
74294;DHT22;64044;59.904;10.738;2023-05-28T07:48:02;16.30;39.40
74294;DHT22;64044;59.904;10.738;2023-05-28T07:50:27;16.40;39.00
74294;DHT22;64044;59.904;10.738;2023-05-28T07:52:53;16.40;38.50
74294;DHT22;64044;59.904;10.738;2023-05-28T07:55:19;16.50;38.30
74294;DHT22;64044;59.904;10.738;2023-05-28T07:57:45;16.60;38.30
74294;DHT22;64044;59.904;10.738;2023-05-28T08:00:11;16.60;38.50
74294;DHT22;64044;59.904;10.738;2023-05-28T08:02:45;16.70;38.60
74294;DHT22;64044;59.904;10.738;2023-05-28T08:05:10;16.90;38.00
74294;DHT22;64044;59.904;10.738;2023-05-28T08:07:36;16.90;37.90
74294;DHT22;64044;59.904;10.738;2023-05-28T08:10:03;17.00;38.40
74294;DHT22;64044;59.904;10.738;2023-05-28T08:12:30;17.10;38.40
74294;DHT22;64044;59.904;10.738;2023-05-28T08:14:55;17.20;37.80
74294;DHT22;64044;59.904;10.738;2023-05-28T08:17:22;17.30;37.50
74294;DHT22;64044;59.904;10.738;2023-05-28T08:19:48;17.30;37.70
74294;DHT22;64044;59.904;10.738;2023-05-28T08:22:15;17.30;36.90
74294;DHT22;64044;59.904;10.738;2023-05-28T08:24:41;17.30;36.70
74294;DHT22;64044;59.904;10.738;2023-05-28T08:27:07;17.30;37.40
74294;DHT22;64044;59.904;10.738;2023-05-28T08:29:32;17.40;37.90
74294;DHT22;64044;59.904;10.738;2023-05-28T08:31:58;17.40;38.00
74294;DHT22;64044;59.904;10.738;2023-05-28T08:34:25;17.40;37.40
74294;DHT22;64044;59.904;10.738;2023-05-28T08:36:51;17.40;36.70
74294;DHT22;64044;59.904;10.738;2023-05-28T08:39:17;17.40;34.90
74294;DHT22;64044;59.904;10.738;2023-05-28T08:41:43;17.40;35.00
74294;DHT22;64044;59.904;10.738;2023-05-28T08:44:09;17.40;36.20
74294;DHT22;64044;59.904;10.738;2023-05-28T08:46:36;17.50;36.80
74294;DHT22;64044;59.904;10.738;2023-05-28T08:49:03;17.50;35.00
74294;DHT22;64044;59.904;10.738;2023-05-28T08:51:32;17.50;34.20
74294;DHT22;64044;59.904;10.738;2023-05-28T08:54:01;17.50;35.10
74294;DHT22;64044;59.904;10.738;2023-05-28T08:56:27;17.50;36.60
74294;DHT22;64044;59.904;10.738;2023-05-28T08:59:19;17.50;36.40
74294;DHT22;64044;59.904;10.738;2023-05-28T09:01:45;17.50;34.90
74294;DHT22;64044;59.904;10.738;2023-05-28T09:04:12;17.50;35.10
74294;DHT22;64044;59.904;10.738;2023-05-28T09:06:38;17.60;35.70
74294;DHT22;64044;59.904;10.738;2023-05-28T09:09:05;17.60;36.10
74294;DHT22;64044;59.904;10.738;2023-05-28T09:11:33;17.70;35.60
74294;DHT22;64044;59.904;10.738;2023-05-28T09:14:08;17.70;34.70
74294;DHT22;64044;59.904;10.738;2023-05-28T09:16:34;17.80;34.40
74294;DHT22;64044;59.904;10.738;2023-05-28T09:19:04;17.80;35.20
74294;DHT22;64044;59.904;10.738;2023-05-28T09:21:30;17.80;34.30
74294;DHT22;64044;59.904;10.738;2023-05-28T09:23:59;17.90;34.80
74294;DHT22;64044;59.904;10.738;2023-05-28T09:26:30;17.90;33.90
74294;DHT22;64044;59.904;10.738;2023-05-28T09:28:56;17.90;32.60
74294;DHT22;64044;59.904;10.738;2023-05-28T09:31:30;18.00;34.20
74294;DHT22;64044;59.904;10.738;2023-05-28T09:33:59;18.00;33.50
74294;DHT22;64044;59.904;10.738;2023-05-28T09:36:26;18.00;33.70
74294;DHT22;64044;59.904;10.738;2023-05-28T09:38:52;18.00;34.00
74294;DHT22;64044;59.904;10.738;2023-05-28T09:41:35;18.00;33.00
74294;DHT22;64044;59.904;10.738;2023-05-28T09:44:05;18.00;31.60
74294;DHT22;64044;59.904;10.738;2023-05-28T09:46:33;18.10;33.30
74294;DHT22;64044;59.904;10.738;2023-05-28T09:48:59;18.10;33.60
74294;DHT22;64044;59.904;10.738;2023-05-28T09:51:30;18.10;33.80
74294;DHT22;64044;59.904;10.738;2023-05-28T09:54:00;18.20;33.30
74294;DHT22;64044;59.904;10.738;2023-05-28T09:56:32;18.20;33.40
74294;DHT22;64044;59.904;10.738;2023-05-28T09:58:59;18.30;33.00
74294;DHT22;64044;59.904;10.738;2023-05-28T10:01:37;18.30;32.80
74294;DHT22;64044;59.904;10.738;2023-05-28T10:04:08;18.40;32.50
74294;DHT22;64044;59.904;10.738;2023-05-28T10:06:37;18.50;32.10
74294;DHT22;64044;59.904;10.738;2023-05-28T10:09:03;18.50;32.70
74294;DHT22;64044;59.904;10.738;2023-05-28T10:11:47;18.60;32.90
74294;DHT22;64044;59.904;10.738;2023-05-28T10:14:16;18.60;31.90
74294;DHT22;64044;59.904;10.738;2023-05-28T10:16:42;18.70;32.10
74294;DHT22;64044;59.904;10.738;2023-05-28T10:19:09;18.70;31.60
74294;DHT22;64044;59.904;10.738;2023-05-28T10:21:35;18.80;31.30
74294;DHT22;64044;59.904;10.738;2023-05-28T10:24:02;18.80;31.20
74294;DHT22;64044;59.904;10.738;2023-05-28T10:26:28;18.90;31.30
74294;DHT22;64044;59.904;10.738;2023-05-28T10:28:55;18.90;30.40
74294;DHT22;64044;59.904;10.738;2023-05-28T10:31:22;18.90;31.00
74294;DHT22;64044;59.904;10.738;2023-05-28T10:33:48;19.00;30.90
74294;DHT22;64044;59.904;10.738;2023-05-28T10:36:15;19.00;30.70
74294;DHT22;64044;59.904;10.738;2023-05-28T10:38:59;19.00;30.40
74294;DHT22;64044;59.904;10.738;2023-05-28T10:41:25;19.10;30.70
74294;DHT22;64044;59.904;10.738;2023-05-28T10:44:05;19.20;31.10
74294;DHT22;64044;59.904;10.738;2023-05-28T10:46:40;19.20;30.40
74294;DHT22;64044;59.904;10.738;2023-05-28T10:49:12;19.30;31.20
74294;DHT22;64044;59.904;10.738;2023-05-28T10:51:57;19.40;30.70
74294;DHT22;64044;59.904;10.738;2023-05-28T10:54:43;19.50;29.70
74294;DHT22;64044;59.904;10.738;2023-05-28T10:57:22;19.50;29.60
74294;DHT22;64044;59.904;10.738;2023-05-28T11:04:56;19.50;27.90
74294;DHT22;64044;59.904;10.738;2023-05-28T11:07:23;19.50;28.60
74294;DHT22;64044;59.904;10.738;2023-05-28T11:09:55;19.50;29.50
74294;DHT22;64044;59.904;10.738;2023-05-28T11:12:21;19.60;29.80
74294;DHT22;64044;59.904;10.738;2023-05-28T11:14:48;19.70;30.00
74294;DHT22;64044;59.904;10.738;2023-05-28T11:17:14;19.80;29.80
74294;DHT22;64044;59.904;10.738;2023-05-28T11:19:41;20.00;30.00
74294;DHT22;64044;59.904;10.738;2023-05-28T11:22:07;20.10;29.00
74294;DHT22;64044;59.904;10.738;2023-05-28T11:24:49;20.10;28.80
74294;DHT22;64044;59.904;10.738;2023-05-28T11:27:16;20.20;27.90
74294;DHT22;64044;59.904;10.738;2023-05-28T11:29:41;20.30;27.60
74294;DHT22;64044;59.904;10.738;2023-05-28T11:32:07;20.40;27.90
74294;DHT22;64044;59.904;10.738;2023-05-28T11:34:33;20.50;26.70
74294;DHT22;64044;59.904;10.738;2023-05-28T11:36:59;20.50;26.00
74294;DHT22;64044;59.904;10.738;2023-05-28T11:39:25;20.60;28.00
74294;DHT22;64044;59.904;10.738;2023-05-28T11:41:51;20.70;28.60
74294;DHT22;64044;59.904;10.738;2023-05-28T11:44:20;20.70;28.30
74294;DHT22;64044;59.904;10.738;2023-05-28T11:46:49;20.70;27.40
74294;DHT22;64044;59.904;10.738;2023-05-28T11:49:16;20.80;28.60
74294;DHT22;64044;59.904;10.738;2023-05-28T11:51:41;20.90;28.30
74294;DHT22;64044;59.904;10.738;2023-05-28T11:54:07;20.90;27.70
74294;DHT22;64044;59.904;10.738;2023-05-28T11:56:34;21.00;27.30
74294;DHT22;64044;59.904;10.738;2023-05-28T11:59:02;21.10;27.70
74294;DHT22;64044;59.904;10.738;2023-05-28T12:01:32;21.20;27.90
74294;DHT22;64044;59.904;10.738;2023-05-28T12:04:05;21.50;27.80
74294;DHT22;64044;59.904;10.738;2023-05-28T12:06:35;21.70;27.20
74294;DHT22;64044;59.904;10.738;2023-05-28T12:09:14;22.00;27.70
74294;DHT22;64044;59.904;10.738;2023-05-28T12:11:40;22.40;26.60
74294;DHT22;64044;59.904;10.738;2023-05-28T12:14:12;22.80;27.50
74294;DHT22;64044;59.904;10.738;2023-05-28T12:16:46;23.20;27.40
74294;DHT22;64044;59.904;10.738;2023-05-28T12:19:16;23.50;26.30
74294;DHT22;64044;59.904;10.738;2023-05-28T12:21:42;23.80;25.90
74294;DHT22;64044;59.904;10.738;2023-05-28T12:24:13;23.90;25.20
74294;DHT22;64044;59.904;10.738;2023-05-28T12:26:39;24.10;26.20
74294;DHT22;64044;59.904;10.738;2023-05-28T12:29:05;24.30;25.20
74294;DHT22;64044;59.904;10.738;2023-05-28T12:31:31;24.50;24.60
74294;DHT22;64044;59.904;10.738;2023-05-28T12:33:57;24.80;23.30
74294;DHT22;64044;59.904;10.738;2023-05-28T12:36:22;25.20;21.80
74294;DHT22;64044;59.904;10.738;2023-05-28T12:38:48;25.50;21.70
74294;DHT22;64044;59.904;10.738;2023-05-28T12:41:14;25.90;21.50
74294;DHT22;64044;59.904;10.738;2023-05-28T12:43:40;26.30;20.70
74294;DHT22;64044;59.904;10.738;2023-05-28T12:46:05;26.60;21.90
74294;DHT22;64044;59.904;10.738;2023-05-28T12:48:31;27.00;21.70
74294;DHT22;64044;59.904;10.738;2023-05-28T12:50:57;27.30;21.60
74294;DHT22;64044;59.904;10.738;2023-05-28T12:53:22;27.70;21.90
74294;DHT22;64044;59.904;10.738;2023-05-28T12:55:48;28.00;20.80
74294;DHT22;64044;59.904;10.738;2023-05-28T12:58:14;28.20;20.20
74294;DHT22;64044;59.904;10.738;2023-05-28T13:00:40;28.40;20.20
74294;DHT22;64044;59.904;10.738;2023-05-28T13:03:05;28.60;21.20
74294;DHT22;64044;59.904;10.738;2023-05-28T13:05:32;28.80;20.50
74294;DHT22;64044;59.904;10.738;2023-05-28T13:07:59;29.00;20.30
74294;DHT22;64044;59.904;10.738;2023-05-28T13:10:26;29.30;20.10
74294;DHT22;64044;59.904;10.738;2023-05-28T13:12:52;29.50;19.30
74294;DHT22;64044;59.904;10.738;2023-05-28T13:15:18;29.70;19.80
74294;DHT22;64044;59.904;10.738;2023-05-28T13:17:44;30.00;19.20
74294;DHT22;64044;59.904;10.738;2023-05-28T13:20:10;30.20;19.00
74294;DHT22;64044;59.904;10.738;2023-05-28T13:22:39;30.30;18.10
74294;DHT22;64044;59.904;10.738;2023-05-28T13:25:06;30.40;18.70
74294;DHT22;64044;59.904;10.738;2023-05-28T13:27:33;30.40;18.10
74294;DHT22;64044;59.904;10.738;2023-05-28T13:29:59;30.40;18.30
74294;DHT22;64044;59.904;10.738;2023-05-28T13:32:25;30.30;18.10
74294;DHT22;64044;59.904;10.738;2023-05-28T13:34:51;30.30;17.90
74294;DHT22;64044;59.904;10.738;2023-05-28T13:37:17;30.20;18.00
74294;DHT22;64044;59.904;10.738;2023-05-28T13:39:42;30.30;18.30
74294;DHT22;64044;59.904;10.738;2023-05-28T13:42:08;30.40;19.10
74294;DHT22;64044;59.904;10.738;2023-05-28T13:44:34;30.50;18.40
74294;DHT22;64044;59.904;10.738;2023-05-28T13:47:00;30.50;17.90
74294;DHT22;64044;59.904;10.738;2023-05-28T13:49:28;30.50;17.30
74294;DHT22;64044;59.904;10.738;2023-05-28T13:51:54;30.30;17.70
74294;DHT22;64044;59.904;10.738;2023-05-28T13:54:19;30.10;17.30
74294;DHT22;64044;59.904;10.738;2023-05-28T13:56:45;29.80;17.70
74294;DHT22;64044;59.904;10.738;2023-05-28T13:59:11;29.60;16.90
74294;DHT22;64044;59.904;10.738;2023-05-28T14:01:37;29.50;17.40
74294;DHT22;64044;59.904;10.738;2023-05-28T14:04:02;29.60;18.00
74294;DHT22;64044;59.904;10.738;2023-05-28T14:06:28;29.70;18.20
74294;DHT22;64044;59.904;10.738;2023-05-28T14:08:55;29.90;18.10
74294;DHT22;64044;59.904;10.738;2023-05-28T14:11:20;30.10;17.90
74294;DHT22;64044;59.904;10.738;2023-05-28T14:13:46;30.20;17.20
74294;DHT22;64044;59.904;10.738;2023-05-28T14:16:12;29.90;16.60
74294;DHT22;64044;59.904;10.738;2023-05-28T14:18:38;29.60;17.10
74294;DHT22;64044;59.904;10.738;2023-05-28T14:21:03;29.20;17.10
74294;DHT22;64044;59.904;10.738;2023-05-28T14:23:29;28.80;16.60
74294;DHT22;64044;59.904;10.738;2023-05-28T14:25:55;28.60;17.10
74294;DHT22;64044;59.904;10.738;2023-05-28T14:28:20;28.50;17.50
74294;DHT22;64044;59.904;10.738;2023-05-28T14:30:47;28.30;17.80
74294;DHT22;64044;59.904;10.738;2023-05-28T14:33:13;28.30;17.90
74294;DHT22;64044;59.904;10.738;2023-05-28T14:35:39;28.20;17.80
74294;DHT22;64044;59.904;10.738;2023-05-28T14:38:05;28.10;18.10
74294;DHT22;64044;59.904;10.738;2023-05-28T14:40:31;28.00;17.80
74294;DHT22;64044;59.904;10.738;2023-05-28T14:42:56;27.90;17.30
74294;DHT22;64044;59.904;10.738;2023-05-28T14:45:22;27.80;16.30
74294;DHT22;64044;59.904;10.738;2023-05-28T14:47:48;27.70;16.60
74294;DHT22;64044;59.904;10.738;2023-05-28T14:50:13;27.70;16.80
74294;DHT22;64044;59.904;10.738;2023-05-28T14:52:39;27.70;16.60
74294;DHT22;64044;59.904;10.738;2023-05-28T14:55:06;27.70;17.10
74294;DHT22;64044;59.904;10.738;2023-05-28T14:57:33;27.80;17.30
74294;DHT22;64044;59.904;10.738;2023-05-28T15:00:04;27.90;17.30
74294;DHT22;64044;59.904;10.738;2023-05-28T15:02:33;28.20;16.90
74294;DHT22;64044;59.904;10.738;2023-05-28T15:05:00;28.40;17.50
74294;DHT22;64044;59.904;10.738;2023-05-28T15:07:25;28.60;17.40
74294;DHT22;64044;59.904;10.738;2023-05-28T15:09:51;28.70;16.50
74294;DHT22;64044;59.904;10.738;2023-05-28T15:12:17;28.50;15.90
74294;DHT22;64044;59.904;10.738;2023-05-28T15:14:43;28.30;17.00
74294;DHT22;64044;59.904;10.738;2023-05-28T15:17:08;28.10;18.00
74294;DHT22;64044;59.904;10.738;2023-05-28T15:19:34;27.80;18.00